Weather at Salamanca Airport

Public forecast

Using degrees Celsius for public forecast. Weather courtesy of forecast.io.

Current aviation weather report (METAR) for Salamanca Airport

Retrieved 2022/05/21 22:00 UTC (9 minutes ago):

LESA 212200Z AUTO 07007KT 9000 NSC 22/11 Q1016

Aviation forecast (TAF) for Salamanca Airport

Retrieved 2022/05/21 21:28 UTC (41 minutes ago):

TAF LESA 212000Z 2121/2221 VRB05KT CAVOK TX24/2216Z TN13/2205Z BECMG 2200/2202 24010KT TEMPO 2212/2219 26015G27KT PROB30 TEMPO 2212/2219 RA SHRA SCT030TCU